Time;durP1;ratioP1;P1;durP2;ratioP2;P2;SDS_P1;SDS_P2;PMS_P1;PMS_P2;Temp;Humidity;BMP_temperature;BMP_pressure;BME280_temperature;BME280_humidity;BME280_pressure;Samples;Min_cycle;Max_cycle;Signal;HPM_P1;HPM_P2
2022/12/06 05:18:46;;;;;;;34.83;13.38;;;;;;;3.47;100.00;100366.81;5558711;32;312269;-87
2022/12/06 05:21:50;;;;;;;27.95;12.90;;;;;;;3.46;100.00;100373.78;5549441;32;34408;-87
2022/12/06 05:24:52;;;;;;;30.30;14.63;;;;;;;3.50;100.00;100366.72;5549864;32;34646;-87
2022/12/06 05:27:55;;;;;;;27.77;13.95;;;;;;;3.50;100.00;100385.97;5560437;32;34695;-87
2022/12/06 05:30:58;;;;;;;24.98;12.50;;;;;;;3.54;100.00;100393.75;5558692;32;35118;-87
2022/12/06 05:34:01;;;;;;;25.45;12.48;;;;;;;3.50;100.00;100392.94;5547561;32;34689;-86
2022/12/06 05:37:04;;;;;;;24.35;12.10;;;;;;;3.48;100.00;100379.84;5547537;32;33716;-86
2022/12/06 05:40:07;;;;;;;24.65;12.18;;;;;;;3.54;100.00;100384.12;5546071;32;34486;-86
2022/12/06 05:43:10;;;;;;;24.40;12.65;;;;;;;3.58;100.00;100395.44;5546142;32;34127;-86
2022/12/06 05:46:13;;;;;;;24.00;12.37;;;;;;;3.61;100.00;100390.09;5548637;32;33826;-86
2022/12/06 05:49:16;;;;;;;20.75;12.10;;;;;;;3.63;100.00;100393.56;5548246;32;33531;-86
2022/12/06 05:52:19;;;;;;;22.13;11.88;;;;;;;3.64;100.00;100390.06;5545804;32;33989;-86
2022/12/06 05:55:22;;;;;;;20.15;11.60;;;;;;;3.67;100.00;100379.47;5544581;32;33234;-86
2022/12/06 05:58:25;;;;;;;21.92;11.55;;;;;;;3.71;100.00;100365.41;5557068;32;33897;-86
2022/12/06 06:01:28;;;;;;;23.52;12.00;;;;;;;3.61;100.00;100370.00;5550672;32;34848;-86
2022/12/06 06:04:31;;;;;;;21.77;11.63;;;;;;;3.69;100.00;100371.59;5546791;32;34489;-86
2022/12/06 06:07:36;;;;;;;22.37;12.65;;;;;;;3.63;100.00;100372.59;5559265;32;34072;-86
2022/12/06 06:10:42;;;;;;;20.33;11.90;;;;;;;3.61;100.00;100375.22;5558200;32;34532;-87
2022/12/06 06:13:45;;;;;;;20.37;11.77;;;;;;;3.56;100.00;100373.63;5561307;32;35251;-86
2022/12/06 06:16:50;;;;;;;21.33;11.70;;;;;;;3.60;100.00;100363.03;5570424;31;35144;-87
2022/12/06 06:19:53;;;;;;;19.37;11.55;;;;;;;3.60;100.00;100352.53;5566986;31;34611;-86
2022/12/06 06:22:56;;;;;;;22.30;12.82;;;;;;;3.59;100.00;100360.41;5543405;32;34231;-86
2022/12/06 06:25:58;;;;;;;20.80;11.55;;;;;;;3.64;100.00;100348.06;5548111;32;33903;-90
2022/12/06 06:29:01;;;;;;;22.50;12.45;;;;;;;3.64;100.00;100345.44;5536437;32;34064;-91
2022/12/06 06:32:04;;;;;;;22.33;13.00;;;;;;;3.62;100.00;100349.88;5540248;32;33248;-91
2022/12/06 06:35:08;;;;;;;20.33;11.88;;;;;;;3.68;100.00;100348.87;5528546;32;33825;-91
2022/12/06 06:38:11;;;;;;;24.08;12.30;;;;;;;3.65;100.00;100339.31;5542674;32;32951;-87
2022/12/06 06:41:14;;;;;;;19.95;11.63;;;;;;;3.61;100.00;100343.75;5537958;32;33846;-86
2022/12/06 06:44:17;;;;;;;21.52;12.23;;;;;;;3.66;100.00;100348.06;5531918;32;34140;-87
2022/12/06 06:47:21;;;;;;;22.00;12.40;;;;;;;3.69;100.00;100346.22;5531059;32;34114;-86
2022/12/06 06:50:23;;;;;;;22.65;12.60;;;;;;;3.70;100.00;100344.44;5536412;32;34655;-86
2022/12/06 06:53:26;;;;;;;22.55;11.73;;;;;;;3.75;100.00;100332.97;5534183;32;34349;-86
2022/12/06 06:56:29;;;;;;;20.83;11.25;;;;;;;3.88;100.00;100332.69;5545878;32;35331;-86
2022/12/06 06:59:32;;;;;;;19.77;11.70;;;;;;;3.78;100.00;100339.91;5545624;32;33617;-88
2022/12/06 07:02:34;;;;;;;20.90;11.98;;;;;;;3.74;100.00;100340.88;5555462;32;34649;-87
2022/12/06 07:05:37;;;;;;;18.73;10.18;;;;;;;3.78;100.00;100337.28;5548501;32;34358;-87
2022/12/06 07:08:40;;;;;;;16.55;10.32;;;;;;;3.83;100.00;100339.81;5544685;32;34209;-87
2022/12/06 07:11:44;;;;;;;14.52;9.73;;;;;;;3.89;100.00;100323.91;5542211;32;33985;-87
2022/12/06 07:14:46;;;;;;;16.75;10.30;;;;;;;3.99;100.00;100322.81;5551760;32;34067;-87
2022/12/06 07:17:50;;;;;;;15.93;9.48;;;;;;;4.05;100.00;100321.78;5538214;32;33360;-87
2022/12/06 07:21:02;;;;;;;15.70;10.02;;;;;;;3.89;100.00;100329.16;5537222;32;34106;-86
2022/12/06 07:24:08;;;;;;;15.30;9.50;;;;;;;3.76;100.00;100324.19;5535182;32;33016;-86
2022/12/06 07:27:11;;;;;;;15.00;9.45;;;;;;;3.83;100.00;100331.94;5544827;32;34541;-86
2022/12/06 07:30:14;;;;;;;16.37;9.18;;;;;;;4.04;100.00;100323.53;5540026;32;34593;-86
2022/12/06 07:33:19;;;;;;;16.98;9.32;;;;;;;4.10;100.00;100343.56;5541103;32;33579;-86
2022/12/06 07:36:23;;;;;;;17.95;9.45;;;;;;;4.14;100.00;100344.34;5540911;32;34008;-86
2022/12/06 07:39:25;;;;;;;14.93;8.88;;;;;;;4.13;100.00;100358.38;5537267;32;34338;-87
2022/12/06 07:45:49;;;;;;;13.70;8.35;;;;;;;3.82;100.00;100332.84;5532852;32;34693;-86
2022/12/06 07:48:52;;;;;;;17.27;9.85;;;;;;;3.74;100.00;100318.13;5542596;32;34085;-86
2022/12/06 07:51:56;;;;;;;16.95;10.25;;;;;;;3.82;100.00;100314.47;5539728;32;33950;-87
2022/12/06 07:54:59;;;;;;;18.12;10.60;;;;;;;3.78;100.00;100324.16;5546577;32;34044;-86
2022/12/06 07:58:02;;;;;;;20.40;12.23;;;;;;;3.83;100.00;100318.81;5551602;32;33959;-86
2022/12/06 08:01:05;;;;;;;18.90;11.52;;;;;;;3.84;100.00;100331.03;5537828;32;33899;-87
2022/12/06 08:04:08;;;;;;;19.20;11.63;;;;;;;3.83;100.00;100327.53;5536031;32;33420;-86
2022/12/06 08:07:11;;;;;;;19.08;10.82;;;;;;;3.81;100.00;100328.50;5536682;32;33992;-86
2022/12/06 08:10:13;;;;;;;14.43;8.80;;;;;;;3.85;100.00;100332.75;5539121;32;34054;-86
2022/12/06 08:13:16;;;;;;;11.88;7.93;;;;;;;3.95;100.00;100338.66;5546885;32;34620;-86
2022/12/06 08:16:19;;;;;;;13.48;7.95;;;;;;;4.14;100.00;100337.34;5542588;32;34577;-86
2022/12/06 08:19:21;;;;;;;13.57;8.40;;;;;;;4.22;100.00;100336.31;5550661;32;33859;-86
2022/12/06 08:22:24;;;;;;;14.45;8.93;;;;;;;4.26;100.00;100332.69;5545376;32;34083;-85
2022/12/06 08:25:27;;;;;;;16.77;9.68;;;;;;;4.52;100.00;100353.06;5537144;32;34777;-85
2022/12/06 08:28:31;;;;;;;17.62;9.73;;;;;;;4.63;100.00;100362.44;5530880;32;32321;-85
2022/12/06 08:31:34;;;;;;;15.95;9.52;;;;;;;4.54;100.00;100361.75;5548385;32;34293;-86
2022/12/06 08:34:39;;;;;;;15.50;9.38;;;;;;;4.47;100.00;100368.06;5531318;32;34671;-85
2022/12/06 08:37:41;;;;;;;16.73;10.35;;;;;;;4.31;100.00;100360.56;5549558;32;32813;-86
2022/12/06 08:40:44;;;;;;;15.40;10.07;;;;;;;4.17;100.00;100358.25;5536759;32;34158;-86
2022/12/06 08:43:47;;;;;;;17.80;9.77;;;;;;;4.20;100.00;100357.34;5553946;32;33708;-86
2022/12/06 08:46:49;;;;;;;17.10;9.32;;;;;;;4.24;100.00;100352.87;5535528;32;33827;-87
2022/12/06 08:49:52;;;;;;;16.62;10.27;;;;;;;4.44;100.00;100355.03;5545561;32;33442;-86
2022/12/06 08:52:55;;;;;;;13.07;7.57;;;;;;;4.82;100.00;100360.19;5537279;32;33842;-86
2022/12/06 08:55:57;;;;;;;8.70;5.93;;;;;;;4.97;100.00;100364.19;5551766;32;33732;-85
2022/12/06 08:59:04;;;;;;;6.32;4.65;;;;;;;5.43;100.00;100362.03;5544668;32;34339;-85
2022/12/06 09:02:10;;;;;;;5.50;4.37;;;;;;;5.56;100.00;100377.47;5548015;32;33864;-85
2022/12/06 09:05:13;;;;;;;4.90;4.00;;;;;;;5.86;100.00;100385.38;5547286;32;34853;-85
2022/12/06 09:08:15;;;;;;;8.63;4.40;;;;;;;5.46;100.00;100376.88;5549468;32;34617;-87
2022/12/06 09:11:18;;;;;;;5.10;4.20;;;;;;;5.30;100.00;100365.94;5548871;32;35776;-87
2022/12/06 09:14:21;;;;;;;4.40;3.92;;;;;;;5.48;100.00;100365.41;5531097;32;33956;-88
2022/12/06 09:17:24;;;;;;;5.18;4.65;;;;;;;5.58;100.00;100368.63;5547130;32;34683;-90
2022/12/06 09:20:26;;;;;;;5.12;4.32;;;;;;;5.37;100.00;100354.34;5535611;32;35293;-90
2022/12/06 09:23:29;;;;;;;4.85;4.15;;;;;;;7.31;100.00;100355.22;5546513;32;34016;-89
2022/12/06 09:26:32;;;;;;;6.62;4.20;;;;;;;7.74;100.00;100365.09;5562175;26;34267;-89
2022/12/06 09:29:36;;;;;;;4.53;3.70;;;;;;;11.34;100.00;100357.75;5544295;32;33614;-88
2022/12/06 09:32:42;;;;;;;4.07;3.50;;;;;;;12.64;100.00;100359.50;5549910;32;34200;-88
2022/12/06 09:35:45;;;;;;;4.68;3.90;;;;;;;12.60;100.00;100355.28;5549128;32;35057;-89
2022/12/06 09:39:02;;;;;;;5.55;3.78;;;;;;;11.88;100.00;100356.66;5548078;32;35196;-88
2022/12/06 09:42:27;;;;;;;4.32;3.90;;;;;;;11.03;100.00;100365.53;5536012;32;34336;-88
2022/12/06 09:45:57;;;;;;;5.40;3.90;;;;;;;10.56;100.00;100356.41;5545914;32;34006;-88
2022/12/06 09:49:10;;;;;;;4.37;3.95;;;;;;;10.02;100.00;100359.88;5535812;32;33221;-88
2022/12/06 09:52:16;;;;;;;5.18;4.30;;;;;;;8.50;100.00;100360.31;5537864;32;34095;-91
2022/12/06 09:55:33;;;;;;;5.15;3.55;;;;;;;8.18;100.00;100356.31;5534466;32;33925;-92
2022/12/06 09:58:55;;;;;;;3.92;2.97;;;;;;;7.80;100.00;100362.22;5546111;32;32254;-88
2022/12/06 10:02:10;;;;;;;4.82;3.33;;;;;;;7.19;100.00;100351.22;5549657;32;33808;-88
2022/12/06 10:05:56;;;;;;;4.50;3.53;;;;;;;6.69;100.00;100358.22;5560316;32;33983;-89
2022/12/06 10:09:17;;;;;;;4.93;3.30;;;;;;;6.46;100.00;100356.34;5514701;32;32616;-88
2022/12/06 10:12:20;;;;;;;;;;;;;;;5.93;100.00;100352.69;5551656;32;34022;-88
2022/12/06 10:15:39;;;;;;;3.53;2.90;;;;;;;6.06;100.00;100355.84;5543918;32;34258;-88
2022/12/06 10:19:00;;;;;;;3.20;2.90;;;;;;;6.28;100.00;100349.91;5554318;32;34304;-88
2022/12/06 10:22:16;;;;;;;6.12;3.10;;;;;;;6.40;100.00;100344.25;5546789;32;33965;-88
2022/12/06 10:25:33;;;;;;;3.37;2.78;;;;;;;6.55;100.00;100339.38;5549530;31;32933;-91
2022/12/06 10:28:49;;;;;;;3.53;3.22;;;;;;;6.87;100.00;100327.72;5544988;32;33475;-88
2022/12/06 10:31:56;;;;;;;3.33;3.03;;;;;;;6.31;100.00;100328.72;5542524;32;33913;-87
2022/12/06 10:35:18;;;;;;;3.50;3.20;;;;;;;6.79;100.00;100316.56;5551418;32;33850;-88
2022/12/06 10:38:31;;;;;;;3.40;2.85;;;;;;;6.65;100.00;100310.94;5536530;32;33898;-87
2022/12/06 10:41:42;;;;;;;3.90;2.95;;;;;;;6.57;100.00;100303.28;5537255;32;33112;-87
2022/12/06 10:44:48;;;;;;;;;;;;;;;5.97;100.00;100300.78;5537709;32;35613;-87
2022/12/06 10:47:55;;;;;;;3.87;3.40;;;;;;;6.27;100.00;100285.81;5538186;32;34735;-87
2022/12/06 10:51:08;;;;;;;4.30;3.37;;;;;;;6.59;100.00;100275.94;5550731;32;33563;-87
2022/12/06 10:54:22;;;;;;;3.05;2.62;;;;;;;6.90;100.00;100281.06;5549223;32;34476;-87
2022/12/06 10:57:35;;;;;;;3.95;3.00;;;;;;;6.86;100.00;100296.12;5536536;32;33568;-87
2022/12/06 11:01:00;;;;;;;3.60;3.08;;;;;;;6.55;100.00;100287.50;5537761;32;33959;-88
2022/12/06 11:04:15;;;;;;;6.43;2.90;;;;;;;7.03;100.00;100286.75;5538640;32;34563;-92
2022/12/06 11:07:30;;;;;;;3.17;2.72;;;;;;;6.63;100.00;100296.94;5539348;32;33873;-87
2022/12/06 11:10:34;;;;;;;3.10;2.80;;;;;;;6.87;100.00;100295.22;5542016;32;32661;-88
2022/12/06 11:13:46;;;;;;;2.85;2.65;;;;;;;8.07;100.00;100290.72;5540178;32;34605;-88
2022/12/06 11:16:58;;;;;;;3.40;3.10;;;;;;;7.79;100.00;100282.09;5544850;32;34210;-87
2022/12/06 11:20:20;;;;;;;4.78;3.40;;;;;;;6.65;100.00;100281.94;5541381;32;34404;-88
2022/12/06 11:23:44;;;;;;;4.82;3.37;;;;;;;6.49;100.00;100271.06;5542023;32;32781;-89
2022/12/06 11:27:03;;;;;;;3.45;3.15;;;;;;;6.52;100.00;100281.47;5544325;32;33922;-88
2022/12/06 11:30:18;;;;;;;2.92;2.67;;;;;;;7.30;100.00;100276.09;5554869;32;34123;-88
2022/12/06 11:33:31;;;;;;;3.45;3.15;;;;;;;6.90;100.00;100276.66;5541997;32;34333;-89
2022/12/06 11:36:34;;;;;;;3.75;3.35;;;;;;;6.81;100.00;100275.22;5550210;32;34967;-89
2022/12/06 11:39:38;;;;;;;3.60;3.30;;;;;;;6.14;100.00;100274.81;5549092;32;33821;-90
2022/12/06 11:42:41;;;;;;;3.67;2.97;;;;;;;6.07;100.00;100279.44;5541673;32;33631;-87
2022/12/06 11:45:45;;;;;;;3.42;3.10;;;;;;;6.51;100.00;100270.09;5551124;32;33123;-88
2022/12/06 11:48:49;;;;;;;3.10;2.80;;;;;;;6.95;100.00;100276.47;5543179;32;35060;-90
2022/12/06 11:51:53;;;;;;;2.95;2.75;;;;;;;6.48;100.00;100278.09;5574838;32;34869;-92
2022/12/06 11:55:00;;;;;;;4.00;3.17;;;;;;;6.33;100.00;100282.97;5556952;32;33721;-92
2022/12/06 11:58:09;;;;;;;3.85;3.10;;;;;;;6.01;100.00;100276.09;5573467;31;35436;-87
2022/12/06 12:01:13;;;;;;;3.03;2.62;;;;;;;6.14;100.00;100285.34;5539155;32;34383;-87
2022/12/06 12:04:24;;;;;;;2.80;2.60;;;;;;;5.72;100.00;100278.75;5541229;32;33489;-88
2022/12/06 12:07:27;;;;;;;2.87;2.40;;;;;;;5.64;100.00;100280.78;5544270;32;34573;-88
2022/12/06 12:10:39;;;;;;;4.37;2.58;;;;;;;5.76;100.00;100280.38;5544839;32;32837;-88
2022/12/06 12:13:48;;;;;;;;;;;;;;;5.88;100.00;100281.75;5531175;32;34085;-88
2022/12/06 12:16:58;;;;;;;3.08;2.78;;;;;;;5.70;100.00;100285.84;5533253;32;36255;-88
2022/12/06 12:20:06;;;;;;;3.12;2.80;;;;;;;5.45;100.00;100290.97;5528259;32;34133;-89
2022/12/06 12:23:26;;;;;;;2.60;2.40;;;;;;;5.44;100.00;100303.28;5530123;32;34036;-88
2022/12/06 12:26:38;;;;;;;2.50;2.30;;;;;;;5.25;100.00;100289.81;5556281;31;32652;-88
2022/12/06 12:29:41;;;;;;;2.15;1.95;;;;;;;5.39;100.00;100287.63;5535982;32;33381;-88
2022/12/06 12:32:45;;;;;;;2.83;2.17;;;;;;;5.32;100.00;100291.34;5544552;32;34570;-88
2022/12/06 12:36:01;;;;;;;1.87;1.73;;;;;;;5.09;100.00;100295.47;5538825;32;33949;-88
2022/12/06 12:39:04;;;;;;;2.92;2.30;;;;;;;5.12;100.00;100295.41;5535313;32;34590;-88
2022/12/06 12:42:28;;;;;;;2.40;2.12;;;;;;;5.10;100.00;100285.84;5542457;32;34016;-88
2022/12/06 12:45:31;;;;;;;3.00;2.25;;;;;;;5.11;100.00;100285.81;5535982;32;33963;-89
2022/12/06 12:48:40;;;;;;;3.75;2.70;;;;;;;5.03;100.00;100289.56;5533855;32;33039;-92
2022/12/06 12:51:45;;;;;;;3.00;2.58;;;;;;;5.02;100.00;100293.94;5550002;32;35193;-92
2022/12/06 12:55:16;;;;;;;2.50;2.30;;;;;;;4.92;100.00;100284.59;5550090;32;34639;-89
2022/12/06 12:58:19;;;;;;;3.10;2.45;;;;;;;4.91;100.00;100294.25;5546553;32;34037;-88
2022/12/06 13:01:48;;;;;;;2.50;2.17;;;;;;;4.99;100.00;100292.25;5530584;32;34018;-88
2022/12/06 13:04:58;;;;;;;2.75;2.12;;;;;;;5.26;100.00;100278.38;5527506;32;34881;-89
2022/12/06 13:08:28;;;;;;;3.37;2.50;;;;;;;5.48;100.00;100272.47;5537079;32;33387;-88
2022/12/06 13:11:40;;;;;;;4.50;2.30;;;;;;;5.38;100.00;100282.41;5534357;32;35512;-87
2022/12/06 13:14:51;;;;;;;2.92;2.62;;;;;;;5.26;100.00;100273.97;5529642;32;34055;-86
2022/12/06 13:18:02;;;;;;;3.00;2.50;;;;;;;5.15;100.00;100286.56;5528258;32;34032;-87
2022/12/06 13:21:46;;;;;;;5.43;2.97;;;;;;;5.26;100.00;100279.25;5536089;32;32652;-88
2022/12/06 13:24:58;;;;;;;5.25;2.62;;;;;;;5.22;100.00;100271.47;5466801;32;34675;-90
2022/12/06 13:28:13;;;;;;;3.35;2.55;;;;;;;5.30;100.00;100273.88;5465394;32;35099;-90
2022/12/06 13:31:18;;;;;;;2.30;2.10;;;;;;;5.20;100.00;100274.16;5464277;32;32077;-89
2022/12/06 13:34:30;;;;;;;3.03;2.10;;;;;;;5.17;100.00;100281.28;5487356;32;33815;-88
2022/12/06 13:37:53;;;;;;;4.00;2.47;;;;;;;5.29;100.00;100283.56;5495562;32;34342;-88
2022/12/06 13:41:01;;;;;;;2.95;2.28;;;;;;;5.35;100.00;100293.91;5499466;32;33450;-87
2022/12/06 13:44:03;;;;;;;2.92;1.90;;;;;;;5.24;100.00;100273.16;5498675;32;32557;-87
2022/12/06 13:47:48;;;;;;;2.22;2.00;;;;;;;5.34;100.00;100273.72;5497486;32;33614;-87
2022/12/06 13:50:54;;;;;;;4.57;1.75;;;;;;;5.38;100.00;100278.00;5441237;32;34276;-87
2022/12/06 13:54:04;;;;;;;2.12;1.87;;;;;;;5.22;100.00;100284.59;5445965;32;33618;-87
2022/12/06 13:57:33;;;;;;;2.08;1.87;;;;;;;5.12;100.00;100290.16;5530336;32;34314;-87
2022/12/06 14:00:39;;;;;;;2.10;1.90;;;;;;;5.22;100.00;100277.59;5501458;32;33357;-86
2022/12/06 14:03:54;;;;;;;2.33;1.95;;;;;;;5.25;100.00;100274.03;5508560;32;34126;-87
2022/12/06 14:07:05;;;;;;;3.70;2.12;;;;;;;5.02;100.00;100280.78;5516586;32;33929;-87
2022/12/06 14:10:13;;;;;;;2.28;2.08;;;;;;;4.98;100.00;100279.16;5510758;32;34576;-86
2022/12/06 14:13:20;;;;;;;2.40;2.15;;;;;;;4.86;100.00;100288.25;5496993;32;33007;-86
2022/12/06 14:16:26;;;;;;;3.47;2.03;;;;;;;4.78;100.00;100282.34;5509704;32;33591;-86
2022/12/06 14:19:44;;;;;;;3.15;2.33;;;;;;;4.77;100.00;100283.25;5514474;32;34664;-86
2022/12/06 14:22:47;;;;;;;2.50;1.87;;;;;;;4.79;100.00;100279.69;5522475;32;34712;-86
2022/12/06 14:25:50;;;;;;;3.40;2.00;;;;;;;4.69;100.00;100281.66;5554968;32;33993;-86
2022/12/06 14:28:56;;;;;;;2.30;2.05;;;;;;;4.69;100.00;100280.81;5550451;32;35096;-86
2022/12/06 14:31:58;;;;;;;2.75;2.10;;;;;;;4.80;100.00;100267.37;5563865;32;33845;-87
2022/12/06 14:35:21;;;;;;;4.43;2.35;;;;;;;4.99;100.00;100276.47;5572063;32;33574;-88
2022/12/06 14:38:27;;;;;;;2.78;2.25;;;;;;;4.97;100.00;100283.56;5580931;31;33985;-86
2022/12/06 14:45:00;;;;;;;2.45;2.25;;;;;;;4.60;100.00;100279.31;5585117;31;34233;-87
2022/12/06 14:48:05;;;;;;;3.03;2.72;;;;;;;4.81;100.00;100279.62;5579917;31;34442;-87
2022/12/06 14:51:23;;;;;;;3.25;2.60;;;;;;;4.48;100.00;100277.00;5569111;32;33734;-87
2022/12/06 14:54:26;;;;;;;3.97;3.03;;;;;;;4.25;100.00;100281.06;5569706;32;33763;-88
2022/12/06 14:57:30;;;;;;;4.00;2.60;;;;;;;4.15;100.00;100289.19;5569295;32;33822;-88
2022/12/06 15:00:37;;;;;;;3.67;2.90;;;;;;;4.12;100.00;100283.16;5568278;32;33779;-87
2022/12/06 15:03:39;;;;;;;3.83;2.80;;;;;;;4.02;100.00;100283.34;5571173;32;33885;-87
2022/12/06 15:06:53;;;;;;;2.75;2.47;;;;;;;4.29;100.00;100286.19;5561185;32;34967;-87
2022/12/06 15:10:06;;;;;;;4.43;3.45;;;;;;;4.13;100.00;100283.09;5529014;32;34065;-87
2022/12/06 15:13:15;;;;;;;3.62;2.80;;;;;;;4.16;100.00;100276.91;5530844;32;33679;-87
2022/12/06 15:16:17;;;;;;;3.60;2.75;;;;;;;4.31;100.00;100275.66;5530345;32;34466;-87
2022/12/06 15:19:21;;;;;;;3.40;2.70;;;;;;;4.28;100.00;100281.84;5529841;32;34527;-86
2022/12/06 15:22:28;;;;;;;4.03;2.70;;;;;;;4.32;100.00;100282.62;5529373;32;33648;-86
2022/12/06 15:25:31;;;;;;;3.45;2.90;;;;;;;4.10;100.00;100284.94;5530220;32;34417;-87
2022/12/06 15:28:36;;;;;;;3.15;2.75;;;;;;;3.99;100.00;100283.44;5530518;32;32541;-87
2022/12/06 15:31:48;;;;;;;4.45;3.08;;;;;;;4.06;100.00;100285.91;5530290;32;32606;-86
2022/12/06 15:34:51;;;;;;;3.97;2.97;;;;;;;3.97;100.00;100292.25;5533038;32;35235;-87
2022/12/06 15:37:53;;;;;;;4.55;3.47;;;;;;;3.81;100.00;100297.00;5529549;32;33731;-87
2022/12/06 15:40:56;;;;;;;4.50;3.40;;;;;;;3.77;100.00;100304.03;5530705;32;33555;-86
2022/12/06 15:43:59;;;;;;;6.28;4.15;;;;;;;3.69;100.00;100301.63;5528933;32;32404;-87
2022/12/06 15:47:01;;;;;;;4.70;3.65;;;;;;;3.66;100.00;100303.44;5529431;32;34417;-87
2022/12/06 15:50:05;;;;;;;3.87;3.47;;;;;;;3.57;100.00;100299.28;5528403;32;33828;-87
2022/12/06 15:53:18;;;;;;;5.60;3.65;;;;;;;3.62;100.00;100306.13;5529594;32;34197;-86
2022/12/06 15:56:22;;;;;;;4.30;3.22;;;;;;;3.73;100.00;100303.25;5528617;32;33989;-86
2022/12/06 15:59:25;;;;;;;5.00;3.70;;;;;;;3.70;100.00;100316.47;5528569;32;33948;-87
2022/12/06 16:02:28;;;;;;;4.85;3.60;;;;;;;3.78;100.00;100317.12;5529087;32;34324;-87
2022/12/06 16:05:31;;;;;;;5.10;3.65;;;;;;;3.64;100.00;100314.81;5530522;32;32437;-88
2022/12/06 16:08:33;;;;;;;4.32;3.60;;;;;;;3.58;100.00;100316.72;5538999;32;33302;-85
2022/12/06 16:11:38;;;;;;;5.03;4.10;;;;;;;3.69;100.00;100312.13;5555148;32;32703;-85
2022/12/06 16:14:41;;;;;;;4.68;3.62;;;;;;;3.54;100.00;100315.94;5563559;32;32273;-86
2022/12/06 16:17:44;;;;;;;4.57;3.55;;;;;;;3.45;100.00;100310.88;5553492;32;35172;-86
2022/12/06 16:20:46;;;;;;;8.50;4.18;;;;;;;3.68;100.00;100313.03;5548075;32;34011;-86
2022/12/06 16:24:03;;;;;;;4.35;3.42;;;;;;;3.51;100.00;100313.38;5549219;32;34067;-90
2022/12/06 16:27:15;;;;;;;4.28;3.70;;;;;;;3.48;100.00;100321.31;5548551;32;34374;-87
2022/12/06 16:30:30;;;;;;;6.60;3.37;;;;;;;3.41;100.00;100317.94;5547696;32;33196;-86
2022/12/06 16:33:32;;;;;;;3.28;2.97;;;;;;;3.44;100.00;100320.50;5547949;32;32880;-86
2022/12/06 16:36:54;;;;;;;4.12;3.60;;;;;;;3.36;100.00;100323.28;5548525;32;34639;-87
